Time;durP1;ratioP1;P1;durP2;ratioP2;P2;SDS_P1;SDS_P2;PMS_P1;PMS_P2;Temp;Humidity;BMP_temperature;BMP_pressure;BME280_temperature;BME280_humidity;BME280_pressure;Samples;Min_cycle;Max_cycle;Signal;HPM_P1;HPM_P2
2022/02/10 00:13:51;;;;;;;;;;;17.10;99.90;;;;;;4983161;28;928;-47
2022/02/10 00:16:32;;;;;;;;;;;17.10;99.90;;;;;;5016747;28;1540;-47
2022/02/10 00:20:03;;;;;;;;;;;17.20;99.90;;;;;;5015815;28;1325;-47
2022/02/10 00:35:46;;;;;;;;;;;17.90;99.90;;;;;;4973737;28;1378;-47
2022/02/10 00:38:36;;;;;;;;;;;17.70;99.90;;;;;;4990911;28;1175;-47
2022/02/10 00:41:04;;;;;;;;;;;17.50;99.90;;;;;;5001828;28;1326;-47
2022/02/10 00:43:32;;;;;;;;;;;17.40;99.90;;;;;;4987096;28;1381;-47
2022/02/10 00:46:00;;;;;;;;;;;17.30;99.90;;;;;;4986606;28;1303;-47
2022/02/10 00:48:29;;;;;;;;;;;17.20;99.90;;;;;;4982483;28;943;-47
2022/02/10 00:50:58;;;;;;;;;;;17.10;99.90;;;;;;4927229;28;1911;-47
2022/02/10 00:53:29;;;;;;;;;;;17.10;99.90;;;;;;4959398;28;1020;-47
2022/02/10 00:55:55;;;;;;;;;;;17.00;99.90;;;;;;4959284;28;935;-46
2022/02/10 00:58:27;;;;;;;;;;;16.90;99.90;;;;;;4943523;28;872;-46
2022/02/10 01:24:27;;;;;;;;;;;16.60;99.90;;;;;;5014726;28;876;-46
2022/02/10 01:31:08;;;;;;;;;;;16.40;99.90;;;;;;5055157;28;1963;-57
2022/02/10 01:33:35;;;;;;;;;;;16.30;99.90;;;;;;5020210;28;858;-47
2022/02/10 01:36:07;;;;;;;;;;;16.30;99.90;;;;;;5055280;28;1327;-54
2022/02/10 01:38:34;;;;;;;;;;;16.30;99.90;;;;;;5001932;28;959;-47
2022/02/10 02:05:43;;;;;;;;;;;15.90;99.90;;;;;;5057264;28;799;-47
2022/02/10 02:08:10;;;;;;;;;;;15.90;99.90;;;;;;5058107;28;819;-46
2022/02/10 02:10:37;;;;;;;;;;;15.90;99.90;;;;;;5023521;28;1911;-46
2022/02/10 02:13:03;;;;;;;;;;;15.80;99.90;;;;;;5023697;28;847;-46
2022/02/10 02:15:30;;;;;;;;;;;15.80;99.90;;;;;;5058213;28;774;-46
2022/02/10 02:17:57;;;;;;;;;;;15.80;99.90;;;;;;5057726;28;1069;-46
2022/02/10 02:20:25;;;;;;;;;;;15.70;99.90;;;;;;5058179;28;904;-46
2022/02/10 02:22:53;;;;;;;;;;;15.70;99.90;;;;;;5057218;28;953;-46
2022/02/10 02:25:21;;;;;;;;;;;15.70;99.90;;;;;;5023077;28;859;-46
2022/02/10 02:27:54;;;;;;;;;;;15.70;99.90;;;;;;5057876;28;814;-46
2022/02/10 02:30:27;;;;;;;;;;;15.60;99.90;;;;;;5057789;28;1972;-46
2022/02/10 03:06:15;;;;;;;;;;;15.30;99.90;;;;;;5057584;28;846;-57
2022/02/10 03:08:50;;;;;;;;;;;15.30;99.90;;;;;;5051680;28;921;-57
2022/02/10 03:11:18;;;;;;;;;;;15.30;99.90;;;;;;5057408;28;1957;-57
2022/02/10 03:14:03;;;;;;;;;;;15.20;99.90;;;;;;5056748;28;963;-57
2022/02/10 03:19:27;;;;;;;;;;;15.20;99.90;;;;;;5056391;28;1099;-57
2022/02/10 04:06:12;;;;;;;;;;;14.80;99.90;;;;;;5054900;28;825;-56
2022/02/10 04:25:57;;;;;;;;;;;14.70;99.90;;;;;;5016489;28;785;-56
2022/02/10 05:01:06;;;;;;;;;;;14.50;99.90;;;;;;5015980;28;832;-56
2022/02/10 05:38:03;;;;;;;;;;;14.30;99.90;;;;;;5019234;28;825;-56
2022/02/10 05:53:54;;;;;;;;;;;14.20;99.90;;;;;;5018998;28;928;-46
2022/02/10 06:52:47;;;;;;;;;;;14.80;99.90;;;;;;5017560;28;1965;-46
2022/02/10 07:55:07;;;;;;;;;;;15.20;99.90;;;;;;5017042;28;752;-56
2022/02/10 07:57:03;;;;;;;;;;;15.20;99.90;;;;;;5010053;28;1116;-56
2022/02/10 08:00:05;;;;;;;;;;;15.20;99.90;;;;;;5016400;28;1030;-46
2022/02/10 08:52:49;;;;;;;;;;;15.10;99.90;;;;;;5011195;28;1969;-47
2022/02/10 08:55:08;;;;;;;;;;;15.10;99.90;;;;;;5017178;28;1366;-47
2022/02/10 08:58:05;;;;;;;;;;;15.20;99.90;;;;;;5017844;28;1062;-46
2022/02/10 09:19:33;;;;;;;;;;;15.50;99.90;;;;;;5017335;28;1394;-46
2022/02/10 09:52:46;;;;;;;;;;;15.90;99.90;;;;;;5017114;28;1944;-46
2022/02/10 09:57:37;;;;;;;;;;;16.00;99.90;;;;;;5018494;28;984;-46
2022/02/10 10:00:16;;;;;;;;;;;16.10;99.90;;;;;;5000002;28;1469;-46
2022/02/10 10:02:51;;;;;;;;;;;16.20;99.90;;;;;;5015052;28;1055;-46
2022/02/10 10:18:46;;;;;;;;;;;16.50;99.90;;;;;;4962367;28;1441;-47
2022/02/10 10:21:33;;;;;;;;;;;16.60;99.90;;;;;;4959639;28;1203;-47
2022/02/10 10:51:39;;;;;;;;;;;17.10;99.90;;;;;;4956765;28;1910;-47
2022/02/10 10:56:35;;;;;;;;;;;17.10;99.90;;;;;;5015741;28;1042;-47
2022/02/10 11:06:11;;;;;;;;;;;17.20;99.90;;;;;;4965618;28;1109;-47
2022/02/10 11:38:03;;;;;;;;;;;16.20;99.90;;;;;;5015964;28;1020;-47
2022/02/10 11:40:31;;;;;;;;;;;16.40;99.90;;;;;;5012910;28;1231;-47
2022/02/10 11:43:13;;;;;;;;;;;16.50;99.90;;;;;;5016218;28;1274;-47
2022/02/10 11:46:14;;;;;;;;;;;16.70;99.90;;;;;;5016966;28;1742;-47
2022/02/10 14:09:06;;;;;;;;;;;17.20;99.90;;;;;;5017632;28;1586;-47
2022/02/10 14:12:40;;;;;;;;;;;17.60;99.90;;;;;;5017268;28;1898;-47
2022/02/10 14:14:59;;;;;;;;;;;17.70;99.90;;;;;;5017129;28;1288;-47
2022/02/10 14:17:37;;;;;;;;;;;17.70;99.90;;;;;;5016255;28;1289;-47
2022/02/10 14:20:22;;;;;;;;;;;17.80;99.90;;;;;;5016612;28;1375;-47
2022/02/10 14:23:04;;;;;;;;;;;17.90;99.90;;;;;;5015507;28;1432;-47
2022/02/10 14:28:11;;;;;;;;;;;18.00;99.90;;;;;;5016848;28;752;-47
2022/02/10 14:30:38;;;;;;;;;;;18.00;99.90;;;;;;5021221;28;1011;-47
2022/02/10 14:33:05;;;;;;;;;;;18.10;99.90;;;;;;5015826;28;2381;-47
2022/02/10 14:35:44;;;;;;;;;;;18.10;99.90;;;;;;5015545;28;1443;-47
2022/02/10 15:29:09;;;;;;;;;;;18.80;99.90;;;;;;5016559;28;1549;-57
2022/02/10 15:54:14;;;;;;;;;;;18.10;99.90;;;;;;5016203;28;1910;-57
2022/02/10 16:18:47;;;;;;;;;;;17.70;99.90;;;;;;5011934;28;781;-47
2022/02/10 16:21:14;;;;;;;;;;;17.70;99.90;;;;;;5015106;28;1346;-47
2022/02/10 16:23:40;;;;;;;;;;;17.70;99.90;;;;;;5015506;28;1029;-47
2022/02/10 16:26:13;;;;;;;;;;;17.60;99.90;;;;;;5016173;28;861;-47
2022/02/10 16:28:41;;;;;;;;;;;17.60;99.90;;;;;;5015717;28;1538;-47
2022/02/10 16:31:08;;;;;;;;;;;17.60;99.90;;;;;;5013592;28;1392;-47
2022/02/10 16:33:34;;;;;;;;;;;17.60;99.90;;;;;;5015818;28;1914;-47
2022/02/10 16:36:04;;;;;;;;;;;17.50;99.90;;;;;;5012987;28;1175;-47
2022/02/10 16:38:31;;;;;;;;;;;17.50;99.90;;;;;;5014678;28;1172;-47
2022/02/10 16:40:57;;;;;;;;;;;17.50;99.90;;;;;;5015332;28;975;-47
2022/02/10 16:43:24;;;;;;;;;;;17.50;99.90;;;;;;4998162;28;1426;-47
2022/02/10 16:45:50;;;;;;;;;;;17.50;99.90;;;;;;4998476;28;1027;-57
2022/02/10 16:48:16;;;;;;;;;;;17.50;99.90;;;;;;4998248;28;1114;-57
2022/02/10 16:50:44;;;;;;;;;;;17.50;99.90;;;;;;5015356;28;1284;-57
2022/02/10 16:53:17;;;;;;;;;;;17.50;99.90;;;;;;5014579;28;1910;-57
2022/02/10 17:03:38;;;;;;;;;;;17.50;99.90;;;;;;5015721;28;803;-47
2022/02/10 17:27:42;;;;;;;;;;;17.30;99.90;;;;;;5017249;28;1015;-47
2022/02/10 17:33:05;;;;;;;;;;;17.30;99.90;;;;;;5018810;28;1906;-47
2022/02/10 17:36:04;;;;;;;;;;;17.30;99.90;;;;;;5018811;28;937;-47
2022/02/10 17:41:44;;;;;;;;;;;17.20;99.90;;;;;;5015938;28;959;-47
2022/02/10 17:47:08;;;;;;;;;;;17.20;99.90;;;;;;5019178;28;758;-47
2022/02/10 17:52:21;;;;;;;;;;;17.30;99.90;;;;;;5017742;28;1915;-47
2022/02/10 17:54:47;;;;;;;;;;;17.30;99.90;;;;;;5018493;28;1116;-47
2022/02/10 17:57:14;;;;;;;;;;;17.20;99.90;;;;;;5018673;28;933;-47
2022/02/10 17:59:42;;;;;;;;;;;17.20;99.90;;;;;;5018478;28;1056;-47
2022/02/10 18:02:08;;;;;;;;;;;17.20;99.90;;;;;;5016253;28;1045;-47
2022/02/10 18:04:34;;;;;;;;;;;17.20;99.90;;;;;;5018783;28;858;-47
2022/02/10 18:07:00;;;;;;;;;;;17.20;99.90;;;;;;5017918;28;1012;-57
2022/02/10 18:17:16;;;;;;;;;;;17.20;99.90;;;;;;5017899;28;1023;-56
2022/02/10 18:19:50;;;;;;;;;;;17.20;99.90;;;;;;5017677;28;1254;-47
2022/02/10 18:25:02;;;;;;;;;;;17.30;99.90;;;;;;5018117;28;786;-47
2022/02/10 18:27:45;;;;;;;;;;;17.30;99.90;;;;;;5018376;28;1011;-47
2022/02/10 18:30:19;;;;;;;;;;;17.30;99.90;;;;;;5016883;28;1009;-47
2022/02/10 19:08:09;;;;;;;;;;;17.50;99.90;;;;;;5015820;28;1147;-46
2022/02/10 19:10:38;;;;;;;;;;;17.50;99.90;;;;;;5016540;28;1091;-46
2022/02/10 19:13:06;;;;;;;;;;;17.50;99.90;;;;;;5012139;28;1906;-46
2022/02/10 19:15:35;;;;;;;;;;;17.50;99.90;;;;;;5016809;28;1116;-46
2022/02/10 19:18:02;;;;;;;;;;;17.40;99.90;;;;;;5021550;28;1468;-47
2022/02/10 19:20:28;;;;;;;;;;;17.40;99.90;;;;;;5017040;28;1041;-46
2022/02/10 19:22:54;;;;;;;;;;;17.40;99.90;;;;;;5016328;28;1122;-46
2022/02/10 19:25:20;;;;;;;;;;;17.40;99.90;;;;;;5017128;28;839;-46
2022/02/10 19:27:50;;;;;;;;;;;17.40;99.90;;;;;;4999931;28;834;-47
2022/02/10 19:30:18;;;;;;;;;;;17.40;99.90;;;;;;5016259;28;1106;-46
2022/02/10 19:32:50;;;;;;;;;;;17.40;99.90;;;;;;5014381;28;1907;-56
2022/02/10 19:35:20;;;;;;;;;;;17.30;99.90;;;;;;4997866;28;1133;-55
2022/02/10 19:37:53;;;;;;;;;;;17.30;99.90;;;;;;5013640;28;891;-56
2022/02/10 19:40:19;;;;;;;;;;;17.30;99.90;;;;;;4996834;28;1267;-56
2022/02/10 19:42:47;;;;;;;;;;;17.30;99.90;;;;;;5016104;28;851;-56
2022/02/10 19:45:13;;;;;;;;;;;17.20;99.90;;;;;;5016329;28;1145;-55
2022/02/10 19:47:40;;;;;;;;;;;17.20;99.90;;;;;;5016452;28;987;-56
2022/02/10 19:50:13;;;;;;;;;;;17.20;99.90;;;;;;5016407;28;1134;-56
2022/02/10 19:52:42;;;;;;;;;;;17.20;99.90;;;;;;5012804;28;1965;-56
2022/02/10 19:55:13;;;;;;;;;;;17.20;99.90;;;;;;5011387;28;879;-55
2022/02/10 19:57:40;;;;;;;;;;;17.20;99.90;;;;;;4999184;28;901;-56
2022/02/10 20:00:10;;;;;;;;;;;17.10;99.90;;;;;;4999650;28;921;-56
2022/02/10 20:02:37;;;;;;;;;;;17.10;99.90;;;;;;4998696;28;846;-56
2022/02/10 20:05:04;;;;;;;;;;;17.10;99.90;;;;;;5014922;28;870;-56
2022/02/10 20:07:36;;;;;;;;;;;17.10;99.90;;;;;;5016017;28;806;-56
2022/02/10 20:10:04;;;;;;;;;;;17.10;99.90;;;;;;5016243;28;749;-56
2022/02/10 20:12:30;;;;;;;;;;;17.10;99.90;;;;;;5015595;28;1112;-56
2022/02/10 20:14:56;;;;;;;;;;;17.10;99.90;;;;;;5015863;28;1977;-56
2022/02/10 20:17:22;;;;;;;;;;;17.10;99.90;;;;;;5016302;28;1036;-56
2022/02/10 20:19:49;;;;;;;;;;;17.20;99.90;;;;;;5013786;28;1221;-57
2022/02/10 20:22:15;;;;;;;;;;;17.20;99.90;;;;;;4995991;28;1692;-55
2022/02/10 20:24:41;;;;;;;;;;;17.20;99.90;;;;;;4981349;28;1240;-56
2022/02/10 20:27:07;;;;;;;;;;;17.20;99.90;;;;;;4973209;28;1457;-56
2022/02/10 20:29:34;;;;;;;;;;;17.20;99.90;;;;;;5015600;28;915;-57
2022/02/10 20:32:00;;;;;;;;;;;17.30;99.90;;;;;;5014914;28;1336;-56
2022/02/10 20:34:29;;;;;;;;;;;17.30;99.90;;;;;;5014348;28;1981;-56
2022/02/10 20:36:58;;;;;;;;;;;17.00;99.90;;;;;;5014329;28;1398;-56
2022/02/10 20:39:27;;;;;;;;;;;16.70;99.90;;;;;;5011760;28;1495;-56
2022/02/10 20:42:01;;;;;;;;;;;16.40;99.90;;;;;;5015944;28;967;-56
2022/02/10 20:44:28;;;;;;;;;;;16.20;99.90;;;;;;5016430;28;803;-57
2022/02/10 20:46:54;;;;;;;;;;;16.20;99.90;;;;;;5015611;28;964;-56
2022/02/10 20:49:26;;;;;;;;;;;16.30;99.90;;;;;;5015186;28;1124;-57
2022/02/10 20:51:54;;;;;;;;;;;16.60;99.90;;;;;;5016278;28;1074;-57
2022/02/10 20:54:20;;;;;;;;;;;17.00;99.90;;;;;;5015805;28;1910;-57
2022/02/10 20:56:46;;;;;;;;;;;17.30;99.90;;;;;;5015684;28;1046;-57
2022/02/10 21:01:54;;;;;;;;;;;17.80;99.90;;;;;;5014044;28;1272;-55
2022/02/10 21:04:30;;;;;;;;;;;18.00;99.90;;;;;;5014327;28;1025;-56
2022/02/10 21:07:10;;;;;;;;;;;18.20;99.90;;;;;;4999431;28;1017;-58
2022/02/10 21:09:56;;;;;;;;;;;18.40;99.90;;;;;;5012726;28;922;-56
2022/02/10 21:12:23;;;;;;;;;;;18.60;99.90;;;;;;5016464;28;991;-57
2022/02/10 21:14:49;;;;;;;;;;;18.70;99.90;;;;;;5016046;28;1959;-56
2022/02/10 21:17:22;;;;;;;;;;;18.70;99.90;;;;;;5015871;28;986;-56
2022/02/10 21:19:48;;;;;;;;;;;18.80;99.90;;;;;;5015116;28;985;-47
2022/02/10 21:22:18;;;;;;;;;;;18.80;99.90;;;;;;4999725;28;1419;-47
2022/02/10 21:24:56;;;;;;;;;;;18.90;99.90;;;;;;5015795;28;825;-47
2022/02/10 21:30:04;;;;;;;;;;;19.10;99.90;;;;;;5015980;28;929;-47
2022/02/10 21:32:33;;;;;;;;;;;19.10;99.90;;;;;;5011487;28;1304;-47
2022/02/10 21:37:43;;;;;;;;;;;19.30;99.90;;;;;;5013947;28;898;-56
2022/02/10 22:05:42;;;;;;;;;;;19.50;99.90;;;;;;5018383;28;1030;-58
2022/02/10 22:10:04;;;;;;;;;;;19.40;99.90;;;;;;5018020;28;1172;-57
2022/02/10 22:23:24;;;;;;;;;;;19.30;99.90;;;;;;5018051;28;1041;-57
2022/02/10 22:25:52;;;;;;;;;;;19.30;99.90;;;;;;5017028;28;1045;-57
2022/02/10 22:28:31;;;;;;;;;;;19.20;99.90;;;;;;5017641;28;1127;-57
2022/02/10 22:36:19;;;;;;;;;;;19.10;99.90;;;;;;5017705;28;1279;-57
2022/02/10 22:38:47;;;;;;;;;;;19.20;99.90;;;;;;5018003;28;1077;-57
2022/02/10 22:41:15;;;;;;;;;;;19.20;99.90;;;;;;5017582;28;819;-57
2022/02/10 22:43:46;;;;;;;;;;;19.20;99.90;;;;;;5000737;28;1332;-56
2022/02/10 22:46:13;;;;;;;;;;;19.20;99.90;;;;;;5017615;28;1077;-57
2022/02/10 22:48:44;;;;;;;;;;;19.20;99.90;;;;;;5017699;28;1034;-57
2022/02/10 22:51:11;;;;;;;;;;;19.20;99.90;;;;;;5017251;28;1077;-57
2022/02/10 22:53:37;;;;;;;;;;;19.20;99.90;;;;;;5000410;28;1902;-57
2022/02/10 22:56:07;;;;;;;;;;;19.20;99.90;;;;;;5017643;28;1215;-57
2022/02/10 22:58:33;;;;;;;;;;;19.10;99.90;;;;;;5016604;28;1069;-57
2022/02/10 23:00:59;;;;;;;;;;;19.10;99.90;;;;;;5017203;28;985;-57
2022/02/10 23:03:28;;;;;;;;;;;19.10;99.90;;;;;;5017635;28;1077;-57
2022/02/10 23:05:55;;;;;;;;;;;19.00;99.90;;;;;;5017986;28;885;-57
2022/02/10 23:08:21;;;;;;;;;;;19.00;99.90;;;;;;5017496;28;821;-58
2022/02/10 23:10:49;;;;;;;;;;;19.00;99.90;;;;;;5016808;28;819;-58
2022/02/10 23:13:20;;;;;;;;;;;19.00;99.90;;;;;;5017529;28;1894;-58
2022/02/10 23:15:46;;;;;;;;;;;18.90;99.90;;;;;;5017752;28;858;-58
2022/02/10 23:18:19;;;;;;;;;;;18.90;99.90;;;;;;5017573;28;774;-58
2022/02/10 23:20:46;;;;;;;;;;;18.90;99.90;;;;;;5017417;28;1134;-56
2022/02/10 23:23:13;;;;;;;;;;;18.90;99.90;;;;;;5017632;28;1039;-57
2022/02/10 23:25:39;;;;;;;;;;;18.90;99.90;;;;;;5017367;28;806;-57
2022/02/10 23:28:07;;;;;;;;;;;18.90;99.90;;;;;;5017455;28;900;-57
2022/02/10 23:30:33;;;;;;;;;;;18.80;99.90;;;;;;5017166;28;882;-57
2022/02/10 23:33:19;;;;;;;;;;;18.80;99.90;;;;;;5017276;28;884;-57
2022/02/10 23:38:34;;;;;;;;;;;18.80;99.90;;;;;;5017465;28;767;-57
2022/02/10 23:43:29;;;;;;;;;;;18.70;99.90;;;;;;5016898;28;1058;-57
2022/02/10 23:45:56;;;;;;;;;;;18.70;99.90;;;;;;5015894;28;1228;-58
2022/02/10 23:48:22;;;;;;;;;;;18.70;99.90;;;;;;5016604;28;1048;-57
2022/02/10 23:50:48;;;;;;;;;;;18.70;99.90;;;;;;5016729;28;810;-56
2022/02/10 23:53:14;;;;;;;;;;;18.70;99.90;;;;;;5016540;28;1894;-57
2022/02/10 23:55:41;;;;;;;;;;;18.70;99.90;;;;;;5015973;28;1219;-57
